createdAt,value
2023-02-08T00:00:52.077Z,10.65
2023-02-08T00:03:21.733Z,10.63
2023-02-08T00:05:48.605Z,10.64
2023-02-08T00:08:15.458Z,10.68
2023-02-08T00:10:42.643Z,10.63
2023-02-08T00:13:09.673Z,10.65
2023-02-08T00:15:41.637Z,10.69
2023-02-08T00:18:08.485Z,10.60
2023-02-08T00:20:35.294Z,10.69
2023-02-08T00:23:02.077Z,10.73
2023-02-08T00:25:28.803Z,10.67
2023-02-08T00:27:55.591Z,10.60
2023-02-08T00:30:22.419Z,10.67
2023-02-08T00:32:49.377Z,10.73
2023-02-08T00:35:16.263Z,10.75
2023-02-08T00:37:45.980Z,10.71
2023-02-08T00:40:12.812Z,10.75
2023-02-08T00:42:39.792Z,10.76
2023-02-08T00:45:06.810Z,10.71
2023-02-08T00:47:33.541Z,10.76
2023-02-08T00:50:00.369Z,10.74
2023-02-08T00:52:27.983Z,10.77
2023-02-08T00:54:54.901Z,10.65
2023-02-08T00:57:21.649Z,10.66
2023-02-08T00:59:48.517Z,10.66
2023-02-08T01:02:15.810Z,10.64
2023-02-08T01:04:42.735Z,10.71
2023-02-08T01:07:09.509Z,10.74
2023-02-08T01:09:37.750Z,10.77
2023-02-08T01:12:04.494Z,10.72
2023-02-08T01:14:32.917Z,10.78
2023-02-08T01:16:59.864Z,10.75
2023-02-08T01:19:26.651Z,10.67
2023-02-08T01:21:53.417Z,10.76
2023-02-08T01:24:20.237Z,10.84
2023-02-08T01:26:47.053Z,10.84
2023-02-08T01:29:13.936Z,10.81
2023-02-08T01:31:42.113Z,10.86
2023-02-08T01:34:11.002Z,10.80
2023-02-08T01:36:38.789Z,10.82
2023-02-08T01:39:08.553Z,10.79
2023-02-08T01:41:39.000Z,10.66
2023-02-08T01:44:05.928Z,10.69
2023-02-08T01:46:38.591Z,10.67
2023-02-08T01:49:23.361Z,10.73
2023-02-08T01:52:30.874Z,10.63
2023-02-08T01:55:05.244Z,10.59
2023-02-08T01:57:32.245Z,10.59
2023-02-08T02:00:10.087Z,10.57
2023-02-08T02:02:45.766Z,10.63
2023-02-08T02:05:13.461Z,10.47
2023-02-08T02:07:41.113Z,10.47
2023-02-08T02:10:14.378Z,10.42
2023-02-08T02:12:42.212Z,10.46
2023-02-08T02:15:10.271Z,10.53
2023-02-08T02:17:39.277Z,10.47
2023-02-08T02:20:26.752Z,10.57
2023-02-08T02:23:24.543Z,10.53
2023-02-08T02:26:19.017Z,10.69
2023-02-08T02:29:06.677Z,10.62
2023-02-08T02:31:54.927Z,10.60
2023-02-08T02:34:30.805Z,10.59
2023-02-08T02:36:57.521Z,10.60
2023-02-08T02:39:43.197Z,10.62
2023-02-08T02:43:09.863Z,10.62
2023-02-08T02:45:54.017Z,10.62
2023-02-08T02:48:27.524Z,10.60
2023-02-08T02:51:00.680Z,10.62
2023-02-08T02:53:38.022Z,10.45
2023-02-08T02:56:18.856Z,10.37
2023-02-08T02:58:46.211Z,10.36
2023-02-08T03:01:13.487Z,10.40
2023-02-08T03:03:40.898Z,10.37
2023-02-08T03:06:14.677Z,10.26
2023-02-08T03:08:54.362Z,10.30
2023-02-08T03:11:32.760Z,10.28
2023-02-08T03:14:33.744Z,10.32
2023-02-08T03:17:19.615Z,10.29
2023-02-08T03:20:03.065Z,10.30
2023-02-08T03:22:43.584Z,10.27
2023-02-08T03:25:20.809Z,10.20
2023-02-08T03:28:05.960Z,10.32
2023-02-08T03:30:52.056Z,10.16
2023-02-08T03:33:31.315Z,10.19
2023-02-08T03:36:33.131Z,10.10
2023-02-08T03:39:04.352Z,10.25
2023-02-08T03:41:38.967Z,10.17
2023-02-08T03:44:55.311Z,10.10
2023-02-08T03:47:38.248Z,10.00
2023-02-08T03:50:09.562Z,9.91
2023-02-08T03:52:37.777Z,10.04
2023-02-08T03:55:13.338Z,9.89
2023-02-08T03:57:53.953Z,9.97
2023-02-08T04:00:22.001Z,10.00
2023-02-08T04:02:59.573Z,9.94
2023-02-08T04:05:26.736Z,9.87
2023-02-08T04:07:53.779Z,9.78
2023-02-08T04:10:20.951Z,9.75
2023-02-08T04:12:48.584Z,9.75
2023-02-08T04:15:17.527Z,9.62
2023-02-08T04:17:44.458Z,9.71
2023-02-08T04:20:11.882Z,9.59
2023-02-08T04:22:39.535Z,9.59
2023-02-08T04:25:06.441Z,9.65
2023-02-08T04:27:33.162Z,9.66
2023-02-08T04:30:00.777Z,9.58
2023-02-08T04:32:27.530Z,9.57
2023-02-08T04:34:54.290Z,9.64
2023-02-08T04:37:21.058Z,9.54
2023-02-08T04:39:47.878Z,9.49
2023-02-08T04:42:14.802Z,9.56
2023-02-08T04:44:41.672Z,9.68
2023-02-08T04:47:08.618Z,9.64
2023-02-08T04:49:35.346Z,9.71
2023-02-08T04:52:02.145Z,9.68
2023-02-08T04:54:29.658Z,9.74
2023-02-08T04:56:56.859Z,9.74
2023-02-08T04:59:23.695Z,9.80
2023-02-08T05:01:50.598Z,9.83
2023-02-08T05:04:17.493Z,9.81
2023-02-08T05:06:45.503Z,9.91
2023-02-08T05:09:13.599Z,9.85
2023-02-08T05:11:40.504Z,9.82
2023-02-08T05:14:07.275Z,9.78
2023-02-08T05:16:34.111Z,9.81
2023-02-08T05:19:00.943Z,9.85
2023-02-08T05:21:27.730Z,9.75
2023-02-08T05:23:54.572Z,9.76
2023-02-08T05:26:21.425Z,9.72
2023-02-08T05:28:48.613Z,9.76
2023-02-08T05:31:20.153Z,9.69
2023-02-08T05:33:48.489Z,9.88
2023-02-08T05:36:15.338Z,9.82
2023-02-08T05:38:42.075Z,9.82
2023-02-08T05:41:09.554Z,9.75
2023-02-08T05:43:37.038Z,9.58
2023-02-08T05:46:04.031Z,9.63
2023-02-08T05:48:34.565Z,9.73
2023-02-08T05:51:01.378Z,9.68
2023-02-08T05:53:28.186Z,9.53
2023-02-08T05:55:54.943Z,9.57
2023-02-08T05:58:21.705Z,9.58
2023-02-08T06:00:48.515Z,9.64
2023-02-08T06:03:15.337Z,9.70
2023-02-08T06:05:42.538Z,9.73
2023-02-08T06:08:09.532Z,9.83
2023-02-08T06:10:36.476Z,9.86
2023-02-08T06:13:04.507Z,9.84
2023-02-08T06:15:32.637Z,9.81
2023-02-08T06:17:59.394Z,9.85
2023-02-08T06:20:26.232Z,9.82
2023-02-08T06:22:52.898Z,9.83
2023-02-08T06:25:19.622Z,9.81
2023-02-08T06:27:46.429Z,9.82
2023-02-08T06:30:13.450Z,9.74
2023-02-08T06:32:40.310Z,9.70
2023-02-08T06:35:07.552Z,9.78
2023-02-08T06:37:34.309Z,9.70
2023-02-08T06:40:02.066Z,9.66
2023-02-08T06:42:29.141Z,9.70
2023-02-08T06:44:56.071Z,9.70
2023-02-08T06:47:24.256Z,9.76
2023-02-08T06:49:51.362Z,9.71
2023-02-08T06:52:19.082Z,9.54
2023-02-08T06:54:45.890Z,9.54
2023-02-08T06:57:13.088Z,9.64
2023-02-08T06:59:41.054Z,9.44
2023-02-08T07:02:17.468Z,9.52
2023-02-08T07:04:45.405Z,9.51
2023-02-08T07:07:16.836Z,9.46
2023-02-08T07:09:43.810Z,9.51
2023-02-08T07:12:10.954Z,9.41
2023-02-08T07:14:40.341Z,9.47
2023-02-08T07:17:07.253Z,9.57
2023-02-08T07:19:34.439Z,9.49
2023-02-08T07:22:07.250Z,9.61
2023-02-08T07:24:43.416Z,9.56
2023-02-08T07:27:13.446Z,9.61
2023-02-08T07:29:40.892Z,9.58
2023-02-08T07:32:08.671Z,9.64
2023-02-08T07:34:37.298Z,9.63
2023-02-08T07:37:05.096Z,9.59
2023-02-08T07:39:32.239Z,9.65
2023-02-08T07:41:59.499Z,9.53
2023-02-08T07:44:30.198Z,9.53
2023-02-08T07:46:56.955Z,9.58
2023-02-08T07:49:24.194Z,9.52
2023-02-08T07:51:50.938Z,9.56
2023-02-08T07:54:17.870Z,9.56
2023-02-08T07:56:44.705Z,9.68
2023-02-08T07:59:11.491Z,9.80
2023-02-08T08:01:38.226Z,9.87
2023-02-08T08:04:05.015Z,10.07
2023-02-08T08:06:31.755Z,10.05
2023-02-08T08:08:58.454Z,10.22
2023-02-08T08:11:25.425Z,10.33
2023-02-08T08:13:52.257Z,10.34
2023-02-08T08:16:19.390Z,10.33
2023-02-08T08:18:46.936Z,10.55
2023-02-08T08:21:15.328Z,10.52
2023-02-08T08:23:43.024Z,10.73
2023-02-08T08:26:14.604Z,10.63
2023-02-08T08:28:42.404Z,10.75
2023-02-08T08:31:15.176Z,10.66
2023-02-08T08:33:42.085Z,10.71
2023-02-08T08:36:09.413Z,10.70
2023-02-08T08:38:41.085Z,10.77
2023-02-08T08:41:10.061Z,10.67
2023-02-08T08:43:36.797Z,10.59
2023-02-08T08:46:05.854Z,10.57
2023-02-08T08:48:34.203Z,10.54
2023-02-08T08:51:01.036Z,10.47
2023-02-08T08:53:27.872Z,10.64
2023-02-08T08:55:54.642Z,10.73
2023-02-08T08:58:21.437Z,10.84
2023-02-08T09:00:48.348Z,10.85
2023-02-08T09:03:15.152Z,10.69
2023-02-08T09:05:41.964Z,10.66
2023-02-08T09:08:08.768Z,10.66
2023-02-08T09:10:35.586Z,10.60
2023-02-08T09:13:02.401Z,10.70
2023-02-08T09:15:29.296Z,10.77
2023-02-08T09:17:56.075Z,10.75
2023-02-08T09:20:23.994Z,10.70
2023-02-08T09:22:50.848Z,10.82
2023-02-08T09:25:17.616Z,10.73
2023-02-08T09:27:44.388Z,10.72
2023-02-08T09:30:11.749Z,10.78
2023-02-08T09:32:39.915Z,10.81
2023-02-08T09:35:09.536Z,11.06
2023-02-08T09:37:36.275Z,11.21
2023-02-08T09:40:03.161Z,11.29
2023-02-08T09:42:38.910Z,11.40
2023-02-08T09:45:31.032Z,11.36
2023-02-08T09:48:20.856Z,11.36
2023-02-08T09:51:00.123Z,11.65
2023-02-08T09:53:35.237Z,11.58
2023-02-08T09:56:05.851Z,11.72
2023-02-08T09:58:46.026Z,11.84
2023-02-08T10:01:23.641Z,12.00
2023-02-08T10:03:54.264Z,11.99
2023-02-08T10:06:21.466Z,12.17
2023-02-08T10:08:50.844Z,12.27
2023-02-08T10:11:34.640Z,12.38
2023-02-08T10:14:04.490Z,12.25
2023-02-08T10:16:37.273Z,12.36
2023-02-08T10:19:28.575Z,12.70
2023-02-08T10:22:18.325Z,12.53
2023-02-08T10:25:16.130Z,12.56
2023-02-08T10:27:50.374Z,12.45
2023-02-08T10:30:39.281Z,12.65
2023-02-08T10:33:37.440Z,12.61
2023-02-08T10:36:14.838Z,12.43
2023-02-08T10:38:46.892Z,12.62
2023-02-08T10:41:32.504Z,12.51
2023-02-08T10:44:16.473Z,12.26
2023-02-08T10:46:43.207Z,12.26
2023-02-08T10:49:19.064Z,12.42
2023-02-08T10:51:47.247Z,12.18
2023-02-08T10:54:15.205Z,12.37
2023-02-08T10:57:00.975Z,12.53
2023-02-08T10:59:35.537Z,12.53
2023-02-08T11:02:02.755Z,12.68
2023-02-08T11:04:29.636Z,12.72
2023-02-08T11:06:56.498Z,12.94
2023-02-08T11:09:29.304Z,12.92
2023-02-08T11:11:58.672Z,12.97
2023-02-08T11:14:45.506Z,13.11
2023-02-08T11:17:34.054Z,12.78
2023-02-08T11:20:01.238Z,12.81
2023-02-08T11:22:34.518Z,12.85
2023-02-08T11:25:08.100Z,12.72
2023-02-08T11:27:37.492Z,12.88
2023-02-08T11:30:13.201Z,12.98
2023-02-08T11:32:41.547Z,13.06
2023-02-08T11:35:29.610Z,13.23
2023-02-08T11:37:58.645Z,13.13
2023-02-08T11:40:34.392Z,12.89
2023-02-08T11:43:02.142Z,12.93
2023-02-08T11:45:32.522Z,13.13
2023-02-08T11:48:01.801Z,13.16
2023-02-08T11:50:35.013Z,12.87
2023-02-08T11:53:04.840Z,13.12
2023-02-08T11:55:35.968Z,13.18
2023-02-08T11:58:05.446Z,13.11
2023-02-08T12:00:37.815Z,13.18
2023-02-08T12:03:24.747Z,13.20
2023-02-08T12:06:23.202Z,13.44
2023-02-08T12:09:14.268Z,13.19
2023-02-08T12:12:13.749Z,13.28
2023-02-08T12:14:55.590Z,13.29
2023-02-08T12:17:37.462Z,13.08
2023-02-08T12:20:38.902Z,13.17
2023-02-08T12:23:17.653Z,12.89
2023-02-08T12:25:53.421Z,12.91
2023-02-08T12:28:35.175Z,12.83
2023-02-08T12:31:27.474Z,12.75
2023-02-08T12:34:17.415Z,12.62
2023-02-08T12:37:27.259Z,12.68
2023-02-08T12:40:45.613Z,12.70
2023-02-08T12:43:24.498Z,12.69
2023-02-08T12:46:22.401Z,12.61
2023-02-08T12:49:13.964Z,12.57
2023-02-08T12:52:03.710Z,12.50
2023-02-08T12:55:03.034Z,12.34
2023-02-08T12:57:32.029Z,12.43
2023-02-08T13:00:22.752Z,12.41
2023-02-08T13:03:08.349Z,12.29
2023-02-08T13:05:40.844Z,12.37
2023-02-08T13:08:41.168Z,12.34
2023-02-08T13:11:20.291Z,12.33
2023-02-08T13:13:57.393Z,12.26
2023-02-08T13:16:29.477Z,12.17
2023-02-08T13:19:05.225Z,12.28
2023-02-08T13:21:41.052Z,12.22
2023-02-08T13:24:22.886Z,12.39
2023-02-08T13:26:49.771Z,12.33
2023-02-08T13:29:19.571Z,12.41
2023-02-08T13:32:00.648Z,12.49
2023-02-08T13:34:44.809Z,12.35
2023-02-08T13:37:27.386Z,12.28
2023-02-08T13:40:06.745Z,12.42
2023-02-08T13:42:42.858Z,12.38
2023-02-08T13:45:22.549Z,12.40
2023-02-08T13:47:57.711Z,12.42
2023-02-08T13:50:29.218Z,12.46
2023-02-08T13:52:56.412Z,12.36
2023-02-08T13:55:30.707Z,12.34
2023-02-08T13:58:00.236Z,12.33
2023-02-08T14:00:35.578Z,12.34
2023-02-08T14:03:14.391Z,12.27
2023-02-08T14:05:50.058Z,12.34
2023-02-08T14:08:35.212Z,12.25
2023-02-08T14:11:25.017Z,12.33
2023-02-08T14:14:00.817Z,12.25
2023-02-08T14:16:35.868Z,12.38
2023-02-08T14:19:05.483Z,12.38
2023-02-08T14:21:34.505Z,12.46
2023-02-08T14:24:34.153Z,12.48
2023-02-08T14:27:11.588Z,12.39
2023-02-08T14:29:38.622Z,12.47
2023-02-08T14:32:05.784Z,12.33
2023-02-08T14:34:37.729Z,12.21
2023-02-08T14:37:20.473Z,12.23
2023-02-08T14:39:50.578Z,12.23
2023-02-08T14:42:55.458Z,12.38
2023-02-08T14:45:33.994Z,12.37
2023-02-08T14:48:21.330Z,12.44
2023-02-08T14:50:52.758Z,12.46
2023-02-08T14:53:42.499Z,12.31
2023-02-08T14:56:23.409Z,12.43
2023-02-08T14:58:57.499Z,12.33
2023-02-08T15:01:45.111Z,12.37
2023-02-08T15:04:14.399Z,12.39
2023-02-08T15:07:06.590Z,12.40
2023-02-08T15:09:40.621Z,12.32
2023-02-08T15:12:34.366Z,12.23
2023-02-08T15:15:03.576Z,12.25
2023-02-08T15:17:34.491Z,12.28
2023-02-08T15:20:04.401Z,12.22
2023-02-08T15:22:32.966Z,12.28
2023-02-08T15:25:11.447Z,12.34
2023-02-08T15:27:38.757Z,12.34
2023-02-08T15:30:05.840Z,12.28
2023-02-08T15:32:33.642Z,12.34
2023-02-08T15:35:03.165Z,12.43
2023-02-08T15:37:33.762Z,12.47
2023-02-08T15:40:02.187Z,12.35
2023-02-08T15:42:33.254Z,12.34
2023-02-08T15:45:02.701Z,12.37
2023-02-08T15:47:33.523Z,12.37
2023-02-08T15:50:00.729Z,12.32
2023-02-08T15:52:33.015Z,12.33
2023-02-08T15:54:59.846Z,12.34
2023-02-08T15:57:44.046Z,12.21
2023-02-08T16:00:17.840Z,12.32
2023-02-08T16:02:50.558Z,12.34
2023-02-08T16:05:32.172Z,12.35
2023-02-08T16:08:00.888Z,12.29
2023-02-08T16:10:48.906Z,12.24
2023-02-08T16:13:23.894Z,12.22
2023-02-08T16:16:07.094Z,12.22
2023-02-08T16:18:38.637Z,12.30
2023-02-08T16:21:18.056Z,12.24
2023-02-08T16:23:51.188Z,12.19
2023-02-08T16:26:42.207Z,12.18
2023-02-08T16:29:20.229Z,12.09
2023-02-08T16:31:49.344Z,12.16
2023-02-08T16:34:18.884Z,12.15
2023-02-08T16:36:51.350Z,12.17
2023-02-08T16:39:18.081Z,12.16
2023-02-08T16:42:00.972Z,12.07
2023-02-08T16:44:36.189Z,12.07
2023-02-08T16:47:28.093Z,12.09
2023-02-08T16:49:54.865Z,12.11
2023-02-08T16:52:21.701Z,12.10
2023-02-08T16:54:48.680Z,12.11
2023-02-08T16:57:15.554Z,12.16
2023-02-08T16:59:42.280Z,12.07
2023-02-08T17:02:13.023Z,11.99
2023-02-08T17:04:40.236Z,12.05
2023-02-08T17:07:17.273Z,12.00
2023-02-08T17:09:44.050Z,11.96
2023-02-08T17:12:21.848Z,11.90
2023-02-08T17:14:49.419Z,11.84
2023-02-08T17:17:16.227Z,11.79
2023-02-08T17:19:44.459Z,11.71
2023-02-08T17:22:11.303Z,11.69
2023-02-08T17:24:39.294Z,11.56
2023-02-08T17:27:06.453Z,11.50
2023-02-08T17:29:33.256Z,11.63
2023-02-08T17:31:59.986Z,11.66
2023-02-08T17:34:27.745Z,11.76
2023-02-08T17:36:54.673Z,11.76
2023-02-08T17:39:21.571Z,11.66
2023-02-08T17:41:48.338Z,11.70
2023-02-08T17:44:15.435Z,11.62
2023-02-08T17:46:42.737Z,11.67
2023-02-08T17:49:09.601Z,11.63
2023-02-08T17:51:36.457Z,11.64
2023-02-08T17:54:06.482Z,11.54
2023-02-08T17:56:35.465Z,11.40
2023-02-08T17:59:05.760Z,11.53
2023-02-08T18:01:33.203Z,11.52
2023-02-08T18:04:00.741Z,11.55
2023-02-08T18:06:28.731Z,11.58
2023-02-08T18:08:55.766Z,11.62
2023-02-08T18:11:24.112Z,11.52
2023-02-08T18:13:53.323Z,11.48
2023-02-08T18:16:25.389Z,11.35
2023-02-08T18:18:55.504Z,11.36
2023-02-08T18:21:24.282Z,11.13
2023-02-08T18:23:51.450Z,11.00
2023-02-08T18:26:21.355Z,10.92
2023-02-08T18:28:48.467Z,11.06
2023-02-08T18:31:19.907Z,10.91
2023-02-08T18:33:48.519Z,10.77
2023-02-08T18:36:17.220Z,10.76
2023-02-08T18:38:46.613Z,10.73
2023-02-08T18:41:19.760Z,10.72
2023-02-08T18:43:47.249Z,10.63
2023-02-08T18:46:18.253Z,10.62
2023-02-08T18:48:46.694Z,10.52
2023-02-08T18:51:14.798Z,10.66
2023-02-08T18:53:42.414Z,10.62
2023-02-08T18:56:11.663Z,10.64
2023-02-08T18:58:38.521Z,10.65
2023-02-08T19:01:15.457Z,10.69
2023-02-08T19:03:44.911Z,10.70
2023-02-08T19:06:14.799Z,10.73
2023-02-08T19:08:41.608Z,10.73
2023-02-08T19:11:35.883Z,10.63
2023-02-08T19:14:08.140Z,10.62
2023-02-08T19:16:39.078Z,10.50
2023-02-08T19:19:07.003Z,10.52
2023-02-08T19:21:34.157Z,10.54
2023-02-08T19:24:02.300Z,10.49
2023-02-08T19:26:41.425Z,10.62
2023-02-08T19:29:14.311Z,10.53
2023-02-08T19:31:41.891Z,10.57
2023-02-08T19:34:10.492Z,10.62
2023-02-08T19:36:44.147Z,10.57
2023-02-08T19:39:19.308Z,10.67
2023-02-08T19:41:47.297Z,10.52
2023-02-08T19:44:16.533Z,10.45
2023-02-08T19:46:47.728Z,10.39
2023-02-08T19:49:20.182Z,10.42
2023-02-08T19:51:47.628Z,10.46
2023-02-08T19:54:17.444Z,10.32
2023-02-08T19:56:44.880Z,10.31
2023-02-08T19:59:27.935Z,10.30
2023-02-08T20:01:55.640Z,10.32
2023-02-08T20:04:22.612Z,10.23
2023-02-08T20:06:53.367Z,10.20
2023-02-08T20:09:20.656Z,10.04
2023-02-08T20:11:57.914Z,9.88
2023-02-08T20:14:26.199Z,9.82
2023-02-08T20:16:53.137Z,9.88
2023-02-08T20:19:20.419Z,9.80
2023-02-08T20:21:51.571Z,9.92
2023-02-08T20:24:28.469Z,9.83
2023-02-08T20:26:57.671Z,10.03
2023-02-08T20:29:25.126Z,10.12
2023-02-08T20:31:55.596Z,10.21
2023-02-08T20:34:23.605Z,10.10
2023-02-08T20:37:05.731Z,10.17
2023-02-08T20:39:38.831Z,9.98
2023-02-08T20:42:09.906Z,10.06
2023-02-08T20:44:46.807Z,9.98
2023-02-08T20:47:19.253Z,9.84
2023-02-08T20:49:47.037Z,9.73
2023-02-08T20:52:19.714Z,9.70
2023-02-08T20:54:46.836Z,9.83
2023-02-08T20:57:15.213Z,9.93
2023-02-08T20:59:45.702Z,10.04
2023-02-08T21:02:19.624Z,9.97
2023-02-08T21:04:46.597Z,9.84
2023-02-08T21:07:17.610Z,9.73
2023-02-08T21:09:45.270Z,9.60
2023-02-08T21:12:12.197Z,9.73
2023-02-08T21:14:39.462Z,9.66
2023-02-08T21:17:06.314Z,9.57
2023-02-08T21:19:33.094Z,9.46
2023-02-08T21:22:07.069Z,9.48
2023-02-08T21:24:39.069Z,9.50
2023-02-08T21:27:12.362Z,9.47
2023-02-08T21:29:41.879Z,9.57
2023-02-08T21:32:11.282Z,9.57
2023-02-08T21:34:38.920Z,9.68
2023-02-08T21:37:06.815Z,9.68
2023-02-08T21:39:33.690Z,9.77
2023-02-08T21:42:03.847Z,9.78
2023-02-08T21:44:33.131Z,9.68
2023-02-08T21:46:59.906Z,9.68
2023-02-08T21:49:45.531Z,9.88
2023-02-08T21:52:30.784Z,9.89
2023-02-08T21:54:57.714Z,9.98
2023-02-08T21:57:27.510Z,10.00
2023-02-08T21:59:57.681Z,9.86
2023-02-08T22:02:28.332Z,9.91
2023-02-08T22:04:57.513Z,9.69
2023-02-08T22:07:27.528Z,9.56
2023-02-08T22:09:54.679Z,9.57
2023-02-08T22:12:23.153Z,9.56
2023-02-08T22:14:53.258Z,9.62
2023-02-08T22:17:21.275Z,9.60
2023-02-08T22:19:48.154Z,9.59
2023-02-08T22:22:14.925Z,9.50
2023-02-08T22:24:42.009Z,9.78
2023-02-08T22:27:12.133Z,9.70
2023-02-08T22:29:38.885Z,9.75
2023-02-08T22:32:06.072Z,9.85
2023-02-08T22:34:33.102Z,9.68
2023-02-08T22:37:03.733Z,9.87
2023-02-08T22:39:35.357Z,9.89
2023-02-08T22:42:08.207Z,9.94
2023-02-08T22:44:36.548Z,10.06
2023-02-08T22:47:04.869Z,10.05
2023-02-08T22:49:35.162Z,10.06
2023-02-08T22:52:02.549Z,10.20
2023-02-08T22:54:32.468Z,10.14
2023-02-08T22:56:59.427Z,10.15
2023-02-08T22:59:26.330Z,10.14
2023-02-08T23:01:53.367Z,10.10
2023-02-08T23:04:20.228Z,10.14
2023-02-08T23:06:47.596Z,10.17
2023-02-08T23:09:14.435Z,10.21
2023-02-08T23:11:43.537Z,10.16
2023-02-08T23:14:10.394Z,10.13
2023-02-08T23:16:38.033Z,10.07
2023-02-08T23:19:08.079Z,9.98
2023-02-08T23:21:34.877Z,9.95
2023-02-08T23:24:01.687Z,9.92
2023-02-08T23:26:28.489Z,9.92
2023-02-08T23:28:55.219Z,9.83
2023-02-08T23:31:22.522Z,9.86
2023-02-08T23:33:49.582Z,9.82
2023-02-08T23:36:19.880Z,9.76
2023-02-08T23:38:47.383Z,9.74
2023-02-08T23:41:20.050Z,9.63
2023-02-08T23:43:46.978Z,9.77
2023-02-08T23:46:22.437Z,9.74
2023-02-08T23:48:51.990Z,9.69
2023-02-08T23:51:21.624Z,9.66
2023-02-08T23:53:49.564Z,9.62
2023-02-08T23:56:23.289Z,9.63
2023-02-08T23:58:52.607Z,9.59
